Oakland, CA (94613)

4:26 AM PDT on August 31, 2014 (GMT -0700)
Upper Laurel | Change Station
CLOSE
Current Station
Personal Weather Station
Location: Oakland, CA
Elevation: 276 ft
Nearby Weather Stations

Elev 276 ft 37.79 °N, 122.19 °W | Updated 47 seconds ago

Mostly Cloudy
Mostly Cloudy
63.9 °F
Feels Like 63.9 °F
N
3.1
Wind Variable Wind from SSE
Gusts 3.6 mph

Today
High -- | Low -- °F
--% Chance of Precip.
Yesterday
High -- | Low -- °F
Precip. -- in
6:38 AM 7:39 PM
Waxing Crescent, 30% visible
Pressure 29.91 in
Visibility 10.0 miles
Clouds Mostly Cloudy 1200 ft
Dew Point 54 °F
Humidity 71%
Rainfall -999.00 in
Snow Depth Not available.
UV 0 out of 12
Pollen 7.60 out of 12
Air Quality Not available.
Flu Activity Not available.
METAR KOAK 311053Z 28007KT 10SM BKN012 18/14 A2991 RMK AO2 SLP126 T01780144 $

More Conditions Fewer Conditions

Pressure 29.91 in
Visibility 10.0 miles
Clouds Mostly Cloudy 1200 ft
Dew Point 54 °F
Humidity 71%
Rainfall -999.00 in
Snow Depth Not available.
UV 0 out of 12
Pollen 7.60 out of 12
Air Quality Not available.
Flu Activity Not available.
METAR KOAK 311053Z 28007KT 10SM BKN012 18/14 A2991 RMK AO2 SLP126 T01780144 $

More Conditions Fewer Conditions

10-Day Weather Forecast

Almanac

Astronomy

Aug. 31, 2014 Rise Set
Actual Time 6:38 AM PDT 7:39 PM PDT
Civil Twilight 6:11 AM PDT 8:06 PM PDT
Nautical Twilight 5:39 AM PDT 8:38 PM PDT
Astronomical Twilight 5:05 AM PDT 9:11 PM PDT
Moon 12:23 PM PDT 11:05 PM PDT
Length of Visible Light 13h 55m
Length of Day
13h 01m
Tomorrow will be 2m 20s shorter.
Waxing Crescent, 30% of the Moon is Illuminated
Today
Waxing Crescent
Sep 2
First Quarter
Sep 8
Full
Sep 15
Last Quarter
Sep 24
New

Today's Extremes

State Highs State Lows

Community

WunderPhotos

Upload Photos

1,748,840 photos uploaded!

Nearby

Air Quality

  Air Quality AQ Index Pollutant
Yesterday Good
PM2.5
Yesterday Good
OZONE
Sunday Good
PM2.5
Monday Good
PM2.5
Tuesday Good
PM2.5
Wednesday Good
PM2.5

Snow Depth

Station Depth Elevation
Blue Lakes 0 in 8000 ft
Forestdale Creek 0 in 8029 ft
Echo Peak 1 in 7800 ft
Rubicon #2 0 in 7500 ft
Ebbetts Pass 0 in 8700 ft

Earthquake Activity

City Distance Mag. Time & Date
Napa, California 32 miles 3.2 1:56 AM PDT
2014-08-31
Gonzales, California 94 miles 2.7 9:48 PM PDT
2014-08-30
Ridgemark, California 89 miles 3.4 4:32 PM PDT
2014-08-29
The Geysers, California 79 miles 2.7 2:53 PM PDT
2014-08-29
Minimum magnitude displayed is 2.5.

Coastal Water Temperatures

Place Temperature
No Stations Reporting

Nearby Weather Stations